createdAt,value
2023-04-02T00:01:26.763Z,13.04
2023-04-02T00:04:16.275Z,12.53
2023-04-02T00:06:46.659Z,13.09
2023-04-02T00:09:13.758Z,13.11
2023-04-02T00:11:49.012Z,13.01
2023-04-02T00:14:28.140Z,12.49
2023-04-02T00:16:59.026Z,13.08
2023-04-02T00:19:51.837Z,13.07
2023-04-02T00:22:31.609Z,12.80
2023-04-02T00:25:11.292Z,12.95
2023-04-02T00:27:40.232Z,12.89
2023-04-02T00:30:09.014Z,12.77
2023-04-02T00:32:37.425Z,12.83
2023-04-02T00:35:17.635Z,12.46
2023-04-02T00:37:45.044Z,12.64
2023-04-02T00:40:30.958Z,12.51
2023-04-02T00:43:04.391Z,12.54
2023-04-02T00:45:50.674Z,12.29
2023-04-02T00:48:32.761Z,12.23
2023-04-02T00:51:24.591Z,12.01
2023-04-02T00:53:56.442Z,12.39
2023-04-02T00:56:41.163Z,12.29
2023-04-02T00:59:36.733Z,12.49
2023-04-02T01:02:17.730Z,12.60
2023-04-02T01:05:07.700Z,11.96
2023-04-02T01:08:16.750Z,12.52
2023-04-02T01:11:17.975Z,12.49
2023-04-02T01:14:09.272Z,11.81
2023-04-02T01:17:18.502Z,11.89
2023-04-02T01:20:07.536Z,11.62
2023-04-02T01:23:19.860Z,11.68
2023-04-02T01:26:11.087Z,12.09
2023-04-02T01:29:19.927Z,11.73
2023-04-02T01:31:50.393Z,12.15
2023-04-02T01:34:25.084Z,12.08
2023-04-02T01:37:22.314Z,12.17
2023-04-02T01:40:58.821Z,12.12
2023-04-02T01:44:00.210Z,12.77
2023-04-02T01:46:36.043Z,12.52
2023-04-02T01:49:15.097Z,13.01
2023-04-02T01:51:51.637Z,12.54
2023-04-02T01:54:22.193Z,12.20
2023-04-02T01:56:51.115Z,11.89
2023-04-02T01:59:22.584Z,11.67
2023-04-02T02:02:04.392Z,11.76
2023-04-02T02:04:35.104Z,11.62
2023-04-02T02:07:04.232Z,11.94
2023-04-02T02:09:35.926Z,12.28
2023-04-02T02:12:05.271Z,11.95
2023-04-02T02:14:33.399Z,12.24
2023-04-02T02:17:04.331Z,12.11
2023-04-02T02:19:55.106Z,12.26
2023-04-02T02:22:34.200Z,12.58
2023-04-02T02:25:14.640Z,12.75
2023-04-02T02:28:00.425Z,12.70
2023-04-02T02:30:36.405Z,12.76
2023-04-02T02:33:32.193Z,12.82
2023-04-02T02:36:50.781Z,12.90
2023-04-02T02:39:30.601Z,13.10
2023-04-02T02:42:14.230Z,13.00
2023-04-02T02:44:48.147Z,12.77
2023-04-02T02:47:39.651Z,12.61
2023-04-02T02:50:23.608Z,12.85
2023-04-02T02:52:58.082Z,12.66
2023-04-02T02:55:36.978Z,12.71
2023-04-02T02:58:27.558Z,12.81
2023-04-02T03:01:06.052Z,12.78
2023-04-02T03:03:35.817Z,12.87
2023-04-02T03:06:10.840Z,13.01
2023-04-02T03:09:05.079Z,12.98
2023-04-02T03:12:04.515Z,12.42
2023-04-02T03:15:12.344Z,12.61
2023-04-02T03:17:55.798Z,12.12
2023-04-02T03:20:53.574Z,12.40
2023-04-02T03:23:37.419Z,13.19
2023-04-02T03:26:34.279Z,12.76
2023-04-02T03:29:26.497Z,12.61
2023-04-02T03:32:06.100Z,13.34
2023-04-02T03:34:57.459Z,12.96
2023-04-02T03:37:43.632Z,11.95
2023-04-02T03:40:31.512Z,12.35
2023-04-02T03:43:12.336Z,12.78
2023-04-02T03:45:55.186Z,13.13
2023-04-02T03:48:44.231Z,13.07
2023-04-02T03:51:45.754Z,12.88
2023-04-02T03:54:16.845Z,13.28
2023-04-02T03:56:47.573Z,13.48
2023-04-02T04:00:08.465Z,12.99
2023-04-02T04:02:54.170Z,13.32
2023-04-02T04:05:54.175Z,13.45
2023-04-02T04:08:32.880Z,13.07
2023-04-02T04:11:15.746Z,13.35
2023-04-02T04:13:57.385Z,13.19
2023-04-02T04:17:04.910Z,13.14
2023-04-02T04:19:51.900Z,13.58
2023-04-02T04:22:34.093Z,13.07
2023-04-02T04:25:34.592Z,12.99
2023-04-02T04:28:58.456Z,13.42
2023-04-02T04:31:55.155Z,13.61
2023-04-02T04:34:53.597Z,13.26
2023-04-02T04:37:38.499Z,12.86
2023-04-02T04:40:23.890Z,12.64
2023-04-02T04:43:11.383Z,12.50
2023-04-02T04:45:56.594Z,12.53
2023-04-02T04:49:29.552Z,12.49
2023-04-02T04:52:24.354Z,12.37
2023-04-02T04:54:52.853Z,12.31
2023-04-02T04:57:37.401Z,12.43
2023-04-02T05:00:37.514Z,12.62
2023-04-02T05:03:46.301Z,12.41
2023-04-02T05:06:56.045Z,12.84
2023-04-02T05:09:36.198Z,12.97
2023-04-02T05:12:10.780Z,12.86
2023-04-02T05:15:21.306Z,13.05
2023-04-02T05:17:57.374Z,13.01
2023-04-02T05:21:00.930Z,13.09
2023-04-02T05:23:40.629Z,13.10
2023-04-02T05:26:36.675Z,13.17
2023-04-02T05:29:24.508Z,13.22
2023-04-02T05:32:15.966Z,13.35
2023-04-02T05:34:53.548Z,13.32
2023-04-02T05:37:28.691Z,13.32
2023-04-02T05:40:13.568Z,13.29
2023-04-02T05:42:49.803Z,13.37
2023-04-02T05:45:36.293Z,13.35
2023-04-02T05:48:21.614Z,13.38
2023-04-02T05:50:58.693Z,13.27
2023-04-02T05:53:40.508Z,13.49
2023-04-02T05:56:44.018Z,13.34
2023-04-02T05:59:24.551Z,13.42
2023-04-02T06:02:22.813Z,13.49
2023-04-02T06:05:12.885Z,13.57
2023-04-02T06:07:59.416Z,13.58
2023-04-02T06:10:45.595Z,13.29
2023-04-02T06:13:19.218Z,13.43
2023-04-02T06:15:48.004Z,13.49
2023-04-02T06:18:28.425Z,13.65
2023-04-02T06:20:57.986Z,13.75
2023-04-02T06:23:53.466Z,13.63
2023-04-02T06:26:34.217Z,13.66
2023-04-02T06:29:30.926Z,13.64
2023-04-02T06:32:02.389Z,13.69
2023-04-02T06:34:32.756Z,13.84
2023-04-02T06:37:34.958Z,13.85
2023-04-02T06:40:39.655Z,13.82
2023-04-02T06:43:39.041Z,13.95
2023-04-02T06:46:52.904Z,13.74
2023-04-02T06:49:55.268Z,13.96
2023-04-02T06:52:39.523Z,13.58
2023-04-02T06:55:41.113Z,13.88
2023-04-02T06:58:11.184Z,14.15
2023-04-02T07:00:46.413Z,14.34
2023-04-02T07:03:32.151Z,14.24
2023-04-02T07:06:06.172Z,14.39
2023-04-02T07:08:34.816Z,14.57
2023-04-02T07:11:02.349Z,14.68
2023-04-02T07:13:29.778Z,14.79
2023-04-02T07:15:57.612Z,15.00
2023-04-02T07:18:31.592Z,15.35
2023-04-02T07:21:01.378Z,15.17
2023-04-02T07:23:29.305Z,15.16
2023-04-02T07:25:57.696Z,15.33
2023-04-02T07:28:25.940Z,15.56
2023-04-02T07:30:55.012Z,15.48
2023-04-02T07:33:28.095Z,15.29
2023-04-02T07:35:58.344Z,15.11
2023-04-02T07:38:25.880Z,15.15
2023-04-02T07:40:53.479Z,15.47
2023-04-02T07:43:21.860Z,15.43
2023-04-02T07:45:51.529Z,15.83
2023-04-02T07:48:18.943Z,15.93
2023-04-02T07:50:46.079Z,15.92
2023-04-02T07:53:35.882Z,15.48
2023-04-02T07:56:05.195Z,15.86
2023-04-02T07:58:34.344Z,15.73
2023-04-02T08:01:03.751Z,15.79
2023-04-02T08:03:31.340Z,15.97
2023-04-02T08:05:59.030Z,16.09
2023-04-02T08:08:26.681Z,16.18
2023-04-02T08:10:55.532Z,16.23
2023-04-02T08:13:22.902Z,16.31
2023-04-02T08:15:50.230Z,16.12
2023-04-02T08:18:17.746Z,16.30
2023-04-02T08:20:44.966Z,16.66
2023-04-02T08:23:17.900Z,16.60
2023-04-02T08:25:46.210Z,16.44
2023-04-02T08:28:13.919Z,16.57
2023-04-02T08:30:41.883Z,16.75
2023-04-02T08:33:09.495Z,16.74
2023-04-02T08:35:37.272Z,16.64
2023-04-02T08:38:04.639Z,16.63
2023-04-02T08:40:39.450Z,16.85
2023-04-02T08:43:53.483Z,17.11
2023-04-02T08:46:36.014Z,17.24
2023-04-02T08:49:16.633Z,17.55
2023-04-02T08:51:46.473Z,17.86
2023-04-02T08:54:39.241Z,17.78
2023-04-02T08:57:39.855Z,17.67
2023-04-02T09:00:37.943Z,17.36
2023-04-02T09:03:39.199Z,17.34
2023-04-02T09:06:16.836Z,17.45
2023-04-02T09:08:49.230Z,17.89
2023-04-02T09:11:53.820Z,17.80
2023-04-02T09:15:08.789Z,18.41
2023-04-02T09:17:50.524Z,18.59
2023-04-02T09:20:28.456Z,18.60
2023-04-02T09:22:57.274Z,19.08
2023-04-02T09:25:31.326Z,18.93
2023-04-02T09:28:05.776Z,19.39
2023-04-02T09:30:33.019Z,19.49
2023-04-02T09:33:07.799Z,19.38
2023-04-02T09:35:55.683Z,19.20
2023-04-02T09:38:32.798Z,19.13
2023-04-02T09:41:21.482Z,19.03
2023-04-02T09:43:48.656Z,18.80
2023-04-02T09:46:25.893Z,18.75
2023-04-02T09:49:00.988Z,18.90
2023-04-02T09:51:36.640Z,19.18
2023-04-02T09:54:03.842Z,19.05
2023-04-02T09:56:40.870Z,18.95
2023-04-02T09:59:22.085Z,18.90
2023-04-02T10:01:55.740Z,18.71
2023-04-02T10:04:48.142Z,19.08
2023-04-02T10:08:06.597Z,19.39
2023-04-02T10:10:44.869Z,19.63
2023-04-02T10:13:35.815Z,19.75
2023-04-02T10:16:23.337Z,19.73
2023-04-02T10:18:59.386Z,19.44
2023-04-02T10:21:37.663Z,19.47
2023-04-02T10:24:15.557Z,19.24
2023-04-02T10:27:11.858Z,19.30
2023-04-02T10:30:48.909Z,19.23
2023-04-02T10:33:31.350Z,19.56
2023-04-02T10:36:29.112Z,19.13
2023-04-02T10:39:12.000Z,19.36
2023-04-02T10:42:26.494Z,19.57
2023-04-02T10:45:02.565Z,19.43
2023-04-02T10:47:55.000Z,19.07
2023-04-02T10:50:50.077Z,18.91
2023-04-02T10:53:34.387Z,19.20
2023-04-02T10:56:08.850Z,18.83
2023-04-02T10:58:55.597Z,18.96
2023-04-02T11:01:31.404Z,19.15
2023-04-02T11:04:45.109Z,19.23
2023-04-02T11:07:24.797Z,19.46
2023-04-02T11:09:58.159Z,19.39
2023-04-02T11:13:28.647Z,18.98
2023-04-02T11:15:55.977Z,18.99
2023-04-02T11:18:36.659Z,18.83
2023-04-02T11:21:44.866Z,18.67
2023-04-02T11:24:32.708Z,19.02
2023-04-02T11:27:12.234Z,18.49
2023-04-02T11:30:00.696Z,18.87
2023-04-02T11:32:36.378Z,19.07
2023-04-02T11:35:32.716Z,18.67
2023-04-02T11:38:10.035Z,18.53
2023-04-02T11:40:54.908Z,18.26
2023-04-02T11:43:34.362Z,18.30
2023-04-02T11:46:16.906Z,18.40
2023-04-02T11:48:44.901Z,18.81
2023-04-02T11:51:22.442Z,18.95
2023-04-02T11:53:53.777Z,19.03
2023-04-02T11:56:48.858Z,19.12
2023-04-02T11:59:49.021Z,19.32
2023-04-02T12:03:30.077Z,19.62
2023-04-02T12:06:26.202Z,19.96
2023-04-02T12:09:22.597Z,19.82
2023-04-02T12:11:57.948Z,19.72
2023-04-02T12:14:47.436Z,19.85
2023-04-02T12:17:33.172Z,20.10
2023-04-02T12:20:27.272Z,19.96
2023-04-02T12:22:56.485Z,19.76
2023-04-02T12:25:40.728Z,19.87
2023-04-02T12:28:18.958Z,19.99
2023-04-02T12:30:49.349Z,19.92
2023-04-02T12:33:22.742Z,20.03
2023-04-02T12:35:59.826Z,20.20
2023-04-02T12:38:50.593Z,20.07
2023-04-02T12:41:31.955Z,19.95
2023-04-02T12:44:06.471Z,20.24
2023-04-02T12:46:36.381Z,20.45
2023-04-02T12:49:08.706Z,20.45
2023-04-02T12:51:37.864Z,20.36
2023-04-02T12:54:05.743Z,20.38
2023-04-02T12:56:33.145Z,20.42
2023-04-02T12:59:01.538Z,20.28
2023-04-02T13:01:32.023Z,20.31
2023-04-02T13:04:12.397Z,20.23
2023-04-02T13:06:48.802Z,20.25
2023-04-02T13:09:42.191Z,20.59
2023-04-02T13:12:41.517Z,20.93
2023-04-02T13:15:28.406Z,21.16
2023-04-02T13:18:21.703Z,21.28
2023-04-02T13:20:58.670Z,21.23
2023-04-02T13:23:32.324Z,21.27
2023-04-02T13:26:19.320Z,20.46
2023-04-02T13:29:04.543Z,20.74
2023-04-02T13:31:33.395Z,20.50
2023-04-02T13:34:02.198Z,20.05
2023-04-02T13:36:29.711Z,18.84
2023-04-02T13:38:57.666Z,17.55
2023-04-02T13:41:30.761Z,17.03
2023-04-02T13:44:02.461Z,17.18
2023-04-02T13:46:34.690Z,17.12
2023-04-02T13:49:02.344Z,17.08
2023-04-02T13:51:44.676Z,16.76
2023-04-02T13:54:26.379Z,15.74
2023-04-02T13:56:56.868Z,15.41
2023-04-02T13:59:27.098Z,15.44
2023-04-02T14:02:05.743Z,15.52
2023-04-02T14:04:43.113Z,15.56
2023-04-02T14:07:52.841Z,15.57
2023-04-02T14:11:12.826Z,15.69
2023-04-02T14:14:56.213Z,15.79
2023-04-02T14:18:10.536Z,14.83
2023-04-02T14:21:14.855Z,15.14
2023-04-02T14:24:08.862Z,15.07
2023-04-02T14:28:02.954Z,15.09
2023-04-02T14:31:01.031Z,14.52
2023-04-02T14:34:05.048Z,14.18
2023-04-02T14:37:04.241Z,14.49
2023-04-02T14:40:53.935Z,15.32
2023-04-02T14:43:33.579Z,15.26
2023-04-02T14:46:06.662Z,15.07
2023-04-02T14:48:58.468Z,15.25
2023-04-02T14:51:59.018Z,15.26
2023-04-02T14:55:04.275Z,15.80
2023-04-02T14:57:41.348Z,15.68
2023-04-02T15:00:38.970Z,14.45
2023-04-02T15:03:27.814Z,14.28
2023-04-02T15:06:17.042Z,14.82
2023-04-02T15:09:15.456Z,14.66
2023-04-02T15:11:57.229Z,15.33
2023-04-02T15:14:35.633Z,15.97
2023-04-02T15:17:02.882Z,16.31
2023-04-02T15:19:30.508Z,16.17
2023-04-02T15:22:40.370Z,15.48
2023-04-02T15:25:29.800Z,15.88
2023-04-02T15:28:29.972Z,15.35
2023-04-02T15:31:07.299Z,15.06
2023-04-02T15:34:20.271Z,14.34
2023-04-02T15:37:27.862Z,13.86
2023-04-02T15:40:16.101Z,14.49
2023-04-02T15:43:32.289Z,15.21
2023-04-02T15:46:22.629Z,15.23
2023-04-02T15:49:33.980Z,15.56
2023-04-02T15:52:26.654Z,15.74
2023-04-02T15:55:24.541Z,15.52
2023-04-02T15:59:01.367Z,15.00
2023-04-02T16:01:40.773Z,14.93
2023-04-02T16:04:26.242Z,14.56
2023-04-02T16:07:43.095Z,14.76
2023-04-02T16:10:41.721Z,14.36
2023-04-02T16:13:38.184Z,14.45
2023-04-02T16:16:40.076Z,14.56
2023-04-02T16:19:33.754Z,14.05
2023-04-02T16:22:33.251Z,14.36
2023-04-02T16:25:24.421Z,14.05
2023-04-02T16:28:33.744Z,13.53
2023-04-02T16:31:17.161Z,14.03
2023-04-02T16:34:02.390Z,14.11
2023-04-02T16:36:56.964Z,13.82
2023-04-02T16:39:52.837Z,13.79
2023-04-02T16:42:47.841Z,13.80
2023-04-02T16:45:33.452Z,13.81
2023-04-02T16:48:46.033Z,14.30
2023-04-02T16:51:38.194Z,13.99
2023-04-02T16:55:01.105Z,13.46
2023-04-02T16:57:44.759Z,13.11
2023-04-02T17:00:38.439Z,13.48
2023-04-02T17:04:16.592Z,13.44
2023-04-02T17:06:55.904Z,13.35
2023-04-02T17:09:43.881Z,13.16
2023-04-02T17:12:23.110Z,12.50
2023-04-02T17:15:28.611Z,12.58
2023-04-02T17:18:02.297Z,11.64
2023-04-02T17:20:29.984Z,11.62
2023-04-02T17:22:58.008Z,11.89
2023-04-02T17:25:34.380Z,11.84
2023-04-02T17:28:03.062Z,11.07
2023-04-02T17:30:44.415Z,11.54
2023-04-02T17:33:16.041Z,12.00
2023-04-02T17:36:01.041Z,12.12
2023-04-02T17:39:32.467Z,11.28
2023-04-02T17:42:14.216Z,11.23
2023-04-02T17:44:59.022Z,11.90
2023-04-02T17:47:49.275Z,11.50
2023-04-02T17:50:53.155Z,11.85
2023-04-02T17:53:38.623Z,11.72
2023-04-02T17:56:55.448Z,11.69
2023-04-02T17:59:31.727Z,11.28
2023-04-02T18:02:24.402Z,11.30
2023-04-02T18:05:27.069Z,11.28
2023-04-02T18:08:27.993Z,10.78
2023-04-02T18:11:10.012Z,10.74
2023-04-02T18:13:48.549Z,11.12
2023-04-02T18:16:48.664Z,11.22
2023-04-02T18:19:32.665Z,11.25
2023-04-02T18:22:10.747Z,10.99
2023-04-02T18:25:34.105Z,11.21
2023-04-02T18:28:29.000Z,11.34
2023-04-02T18:31:01.955Z,11.58
2023-04-02T18:34:13.298Z,11.11
2023-04-02T18:37:21.646Z,11.28
2023-04-02T18:40:38.806Z,10.61
2023-04-02T18:44:02.647Z,10.01
2023-04-02T18:46:40.150Z,9.88
2023-04-02T18:49:39.095Z,9.45
2023-04-02T18:52:17.771Z,9.59
2023-04-02T18:55:16.017Z,9.96
2023-04-02T18:57:46.948Z,9.39
2023-04-02T19:00:30.103Z,9.51
2023-04-02T19:03:24.032Z,10.42
2023-04-02T19:06:03.352Z,10.38
2023-04-02T19:08:43.948Z,10.60
2023-04-02T19:11:28.732Z,9.67
2023-04-02T19:14:02.341Z,9.28
2023-04-02T19:17:11.094Z,9.18
2023-04-02T19:20:16.591Z,9.17
2023-04-02T19:23:17.738Z,8.69
2023-04-02T19:26:21.596Z,9.34
2023-04-02T19:29:45.812Z,9.90
2023-04-02T19:33:12.675Z,9.58
2023-04-02T19:36:10.805Z,10.22
2023-04-02T19:39:21.800Z,10.14
2023-04-02T19:42:07.258Z,9.90
2023-04-02T19:44:42.966Z,9.18
2023-04-02T19:47:11.499Z,9.72
2023-04-02T19:49:39.447Z,10.06
2023-04-02T19:52:06.895Z,10.22
2023-04-02T19:54:35.344Z,9.58
2023-04-02T19:57:09.668Z,10.02
2023-04-02T19:59:37.346Z,10.08
2023-04-02T20:02:07.141Z,9.26
2023-04-02T20:04:34.480Z,8.64
2023-04-02T20:07:02.319Z,8.09
2023-04-02T20:09:29.827Z,8.74
2023-04-02T20:11:57.080Z,7.70
2023-04-02T20:14:24.256Z,7.93
2023-04-02T20:16:52.049Z,7.86
2023-04-02T20:19:19.682Z,7.75
2023-04-02T20:21:47.024Z,8.39
2023-04-02T20:24:14.184Z,7.50
2023-04-02T20:26:41.446Z,8.06
2023-04-02T20:29:08.705Z,7.88
2023-04-02T20:31:36.420Z,7.91
2023-04-02T20:34:05.480Z,8.41
2023-04-02T20:36:33.260Z,8.64
2023-04-02T20:39:00.476Z,9.23
2023-04-02T20:41:27.988Z,9.68
2023-04-02T20:43:55.423Z,9.49
2023-04-02T20:46:22.880Z,8.96
2023-04-02T20:48:50.251Z,8.89
2023-04-02T20:51:17.837Z,9.27
2023-04-02T20:53:46.153Z,8.88
2023-04-02T20:56:17.488Z,9.26
2023-04-02T20:58:45.211Z,9.03
2023-04-02T21:01:22.817Z,8.85
2023-04-02T21:04:00.597Z,9.14
2023-04-02T21:06:32.574Z,9.52
2023-04-02T21:09:04.844Z,9.78
2023-04-02T21:11:33.625Z,9.00
2023-04-02T21:14:01.019Z,8.70
2023-04-02T21:16:31.982Z,9.21
2023-04-02T21:19:07.879Z,9.50
2023-04-02T21:21:38.688Z,9.42
2023-04-02T21:24:09.585Z,9.66
2023-04-02T21:26:40.838Z,9.45
2023-04-02T21:29:08.154Z,9.54
2023-04-02T21:31:39.389Z,9.38
2023-04-02T21:34:09.715Z,8.96
2023-04-02T21:36:44.486Z,9.31
2023-04-02T21:39:19.651Z,9.57
2023-04-02T21:41:51.293Z,9.65
2023-04-02T21:44:22.345Z,9.89
2023-04-02T21:46:51.818Z,9.50
2023-04-02T21:49:22.844Z,9.61
2023-04-02T21:51:53.749Z,9.85
2023-04-02T21:54:21.346Z,9.55
2023-04-02T21:56:49.291Z,9.63
2023-04-02T21:59:17.943Z,9.83
2023-04-02T22:01:50.464Z,9.52
2023-04-02T22:04:23.316Z,9.24
2023-04-02T22:06:52.337Z,9.16
2023-04-02T22:09:26.216Z,9.51
2023-04-02T22:12:02.723Z,9.46
2023-04-02T22:14:30.673Z,8.71
2023-04-02T22:17:01.158Z,9.04
2023-04-02T22:19:28.514Z,9.38
2023-04-02T22:21:56.667Z,8.57
2023-04-02T22:24:25.057Z,8.84
2023-04-02T22:26:52.824Z,8.74
2023-04-02T22:29:20.014Z,8.77
2023-04-02T22:31:47.550Z,8.80
2023-04-02T22:34:15.656Z,9.10
2023-04-02T22:36:42.941Z,9.20
2023-04-02T22:39:12.376Z,9.12
2023-04-02T22:41:40.420Z,8.74
2023-04-02T22:44:07.842Z,8.30
2023-04-02T22:46:35.163Z,8.36
2023-04-02T22:49:03.157Z,8.81
2023-04-02T22:51:30.658Z,8.75
2023-04-02T22:53:57.936Z,8.93
2023-04-02T22:56:32.153Z,8.13
2023-04-02T22:59:00.710Z,8.64
2023-04-02T23:01:34.026Z,8.80
2023-04-02T23:04:01.622Z,8.95
2023-04-02T23:06:29.595Z,8.88
2023-04-02T23:08:57.353Z,8.95
2023-04-02T23:11:27.982Z,8.58
2023-04-02T23:13:58.016Z,8.61
2023-04-02T23:16:28.594Z,9.15
2023-04-02T23:18:57.068Z,8.49
2023-04-02T23:21:25.567Z,8.85
2023-04-02T23:23:54.498Z,8.46
2023-04-02T23:26:32.983Z,8.31
2023-04-02T23:29:01.925Z,8.88
2023-04-02T23:31:29.936Z,8.75
2023-04-02T23:33:58.017Z,8.03
2023-04-02T23:36:33.118Z,8.18
2023-04-02T23:39:12.378Z,8.22
2023-04-02T23:41:42.646Z,8.35
2023-04-02T23:44:10.383Z,8.05
2023-04-02T23:46:37.896Z,7.85
2023-04-02T23:49:05.269Z,7.98
2023-04-02T23:51:32.727Z,7.86
2023-04-02T23:54:00.523Z,7.57
2023-04-02T23:56:27.705Z,7.57
2023-04-02T23:58:55.265Z,7.81
